Anderson Springs, California
Current Conditions -  °F | °C
As of 5:53 AM on Monday 20 Oct 2014 (Local Time) from KSTS Reporting Station
Overcast Overcast  
Wind Chill: 16°   Ceiling: 4300
Heat Index: 16°   Visibility: 10mi
Dew Point: 14°   Wind: 0mph
Humidity: 93%   Direction: NA
Pressure: 29.88"   Gusts: NA
Location:  38.7763°N, 122.598°W
Report Text: KSTS 201253Z AUTO 00000KT 10SM FEW020 OVC043 16/14 A2988 RMK AO2 SLP113 T01560144
Loading
Personal Weather Stations






























Interactive Weather Map
Tropical Storm Tracking
New forecast layout! Learn more

10-Day Weather Forecast

Advertisements
Track Severe Weather on mobile